Time;durP1;ratioP1;P1;durP2;ratioP2;P2;SDS_P1;SDS_P2;PMS_P1;PMS_P2;Temp;Humidity;BMP_temperature;BMP_pressure;BME280_temperature;BME280_humidity;BME280_pressure;Samples;Min_cycle;Max_cycle;Signal;HPM_P1;HPM_P2
2021/04/26 00:00:32;;;;;;;;;;;;;;;20.55;26.56;100431.62;4370702;32;19965;-55
2021/04/26 00:02:58;;;;;;;;;;;;;;;20.53;26.59;100425.44;4359270;32;20038;-56
2021/04/26 00:05:24;;;;;;;;;;;;;;;20.59;26.57;100428.19;4360526;32;20273;-53
2021/04/26 00:07:50;;;;;;;;;;;;;;;20.48;26.73;100428.91;4374289;32;20628;-54
2021/04/26 00:10:16;;;;;;;;;;;;;;;20.50;26.72;100431.59;4373271;32;19952;-55
2021/04/26 00:12:42;;;;;;;;;;;;;;;20.41;26.83;100427.06;4359013;32;19959;-54
2021/04/26 00:15:08;;;;;;;;;;;;;;;20.36;26.85;100427.00;4358515;32;19948;-53
2021/04/26 00:17:34;;;;;;;;;;;;;;;20.33;26.94;100437.53;4372905;32;19961;-54
2021/04/26 00:19:59;;;;;;;;;;;;;;;20.41;26.63;100426.19;4374187;32;20369;-54
2021/04/26 00:22:25;;;;;;;;;;;;;;;20.41;26.68;100437.63;4361404;32;19999;-55
2021/04/26 00:24:51;;;;;;;;;;;;;;;20.48;26.52;100433.31;4359597;32;20029;-52
2021/04/26 00:27:17;;;;;;;;;;;;;;;20.40;26.62;100429.69;4369305;32;20034;-54
2021/04/26 00:29:43;;;;;;;;;;;;;;;20.43;26.57;100425.31;4373372;32;20010;-54
2021/04/26 00:32:09;;;;;;;;;;;;;;;20.45;26.58;100413.03;4363580;32;19951;-55
2021/04/26 00:34:35;;;;;;;;;;;;;;;20.37;26.70;100414.66;4358665;32;19984;-54
2021/04/26 00:37:01;;;;;;;;;;;;;;;20.35;26.81;100416.41;4367830;32;19972;-55
2021/04/26 00:39:26;;;;;;;;;;;;;;;20.34;26.73;100409.34;4373014;32;19992;-55
2021/04/26 00:41:52;;;;;;;;;;;;;;;20.43;26.60;100403.28;4367096;32;19951;-54
2021/04/26 00:44:18;;;;;;;;;;;;;;;20.41;26.68;100411.19;4358737;32;20346;-56
2021/04/26 00:46:44;;;;;;;;;;;;;;;20.42;26.77;100415.59;4364424;32;19955;-55
2021/04/26 00:49:10;;;;;;;;;;;;;;;20.46;26.57;100414.78;4372590;32;19955;-56
2021/04/26 00:51:36;;;;;;;;;;;;;;;20.30;26.83;100419.00;4369320;32;19955;-54
2021/04/26 00:54:02;;;;;;;;;;;;;;;20.34;26.63;100425.22;4359337;32;19944;-54
2021/04/26 00:56:28;;;;;;;;;;;;;;;20.38;26.70;100421.72;4361139;32;20423;-54
2021/04/26 00:58:53;;;;;;;;;;;;;;;20.38;26.71;100416.44;4373356;32;20380;-54
2021/04/26 01:01:20;;;;;;;;;;;;;;;20.44;26.48;100424.47;4372569;32;19965;-54
2021/04/26 01:03:46;;;;;;;;;;;;;;;20.38;26.60;100421.72;4373103;32;19952;-55
2021/04/26 01:06:12;;;;;;;;;;;;;;;20.40;26.58;100420.00;4373364;32;19974;-53
2021/04/26 01:08:38;;;;;;;;;;;;;;;20.36;26.53;100420.84;4358280;32;20005;-54
2021/04/26 01:11:04;;;;;;;;;;;;;;;20.45;26.51;100418.31;4372362;32;19973;-54
2021/04/26 01:13:30;;;;;;;;;;;;;;;20.43;26.36;100420.03;4370600;32;19959;-55
2021/04/26 01:15:56;;;;;;;;;;;;;;;20.37;26.52;100409.38;4357861;32;20333;-53
2021/04/26 01:18:22;;;;;;;;;;;;;;;20.38;26.57;100410.28;4370660;32;19951;-54
2021/04/26 01:20:47;;;;;;;;;;;;;;;20.36;26.53;100405.84;4372941;32;19957;-54
2021/04/26 01:23:13;;;;;;;;;;;;;;;20.37;26.64;100404.09;4361929;32;19955;-53
2021/04/26 01:25:39;;;;;;;;;;;;;;;20.33;26.58;100402.28;4358540;32;20349;-55
2021/04/26 01:28:05;;;;;;;;;;;;;;;20.32;26.47;100392.56;4367400;32;19962;-55
2021/04/26 01:30:31;;;;;;;;;;;;;;;20.33;26.49;100397.00;4372711;32;19993;-54
2021/04/26 01:32:57;;;;;;;;;;;;;;;20.31;26.60;100396.06;4364474;32;19959;-53
2021/04/26 01:35:23;;;;;;;;;;;;;;;20.30;26.55;100396.94;4357724;32;20027;-56
2021/04/26 01:37:49;;;;;;;;;;;;;;;20.33;26.65;100394.34;4365604;32;20017;-54
2021/04/26 01:40:15;;;;;;;;;;;;;;;20.30;26.51;100395.19;4372412;32;20380;-55
2021/04/26 01:42:40;;;;;;;;;;;;;;;20.31;26.46;100388.12;4367204;32;19993;-56
2021/04/26 01:45:06;;;;;;;;;;;;;;;20.29;26.56;100385.47;4357894;32;19967;-56
2021/04/26 01:47:32;;;;;;;;;;;;;;;20.28;26.62;100378.44;4362131;32;19955;-55
2021/04/26 01:49:58;;;;;;;;;;;;;;;20.31;26.51;100380.19;4372274;32;19987;-55
2021/04/26 01:52:24;;;;;;;;;;;;;;;20.31;26.44;100377.56;4369709;32;19964;-50
2021/04/26 01:54:50;;;;;;;;;;;;;;;20.29;26.63;100374.00;4358146;32;20026;-55
2021/04/26 01:57:16;;;;;;;;;;;;;;;20.28;26.47;100366.94;4359107;32;20353;-55
2021/04/26 01:59:42;;;;;;;;;;;;;;;20.29;26.46;100368.72;4372261;32;19962;-55
2021/04/26 02:02:08;;;;;;;;;;;;;;;20.24;26.59;100365.13;4371640;32;20411;-55
2021/04/26 02:04:34;;;;;;;;;;;;;;;20.18;26.59;100358.00;4357818;32;19994;-56
2021/04/26 02:07:00;;;;;;;;;;;;;;;20.31;26.49;100364.31;4358056;32;20010;-54
2021/04/26 02:09:25;;;;;;;;;;;;;;;20.23;26.54;100358.94;4371031;32;19985;-55
2021/04/26 02:11:51;;;;;;;;;;;;;;;20.17;26.61;100359.75;4372614;32;19940;-55
2021/04/26 02:14:17;;;;;;;;;;;;;;;20.18;26.59;100361.53;4359057;32;19956;-55
2021/04/26 02:16:43;;;;;;;;;;;;;;;20.19;26.56;100352.75;4357010;32;19970;-56
2021/04/26 02:19:09;;;;;;;;;;;;;;;20.13;26.76;100357.94;4363920;32;19959;-55
2021/04/26 02:21:35;;;;;;;;;;;;;;;20.13;26.77;100355.31;4357990;32;19955;-54
2021/04/26 02:24:01;;;;;;;;;;;;;;;20.16;26.87;100357.97;4357432;32;19993;-55
2021/04/26 02:26:27;;;;;;;;;;;;;;;20.13;26.72;100351.78;4356984;32;19970;-55
2021/04/26 02:28:53;;;;;;;;;;;;;;;20.12;26.72;100356.19;4365102;32;20703;-55
2021/04/26 02:31:18;;;;;;;;;;;;;;;20.10;26.78;100347.34;4371852;32;19982;-55
2021/04/26 02:33:45;;;;;;;;;;;;;;;20.12;26.75;100345.59;4364510;32;19951;-56
2021/04/26 02:36:11;;;;;;;;;;;;;;;20.13;26.70;100342.09;4357461;32;20550;-56
2021/04/26 02:38:37;;;;;;;;;;;;;;;20.05;26.78;100331.41;4363152;32;19959;-55
2021/04/26 02:41:03;;;;;;;;;;;;;;;20.10;26.63;100334.12;4372271;32;20001;-55
2021/04/26 02:43:29;;;;;;;;;;;;;;;20.05;26.78;100325.22;4367457;32;20333;-56
2021/04/26 02:45:54;;;;;;;;;;;;;;;20.13;26.67;100320.94;4357790;32;19952;-55
2021/04/26 02:48:20;;;;;;;;;;;;;;;20.16;26.58;100310.38;4360228;32;19955;-54
2021/04/26 02:50:46;;;;;;;;;;;;;;;20.14;26.72;100309.50;4371366;32;20033;-53
2021/04/26 02:53:12;;;;;;;;;;;;;;;20.02;26.80;100296.12;4370068;32;19955;-55
2021/04/26 02:55:38;;;;;;;;;;;;;;;19.98;26.98;100299.59;4357628;32;20028;-55
2021/04/26 02:58:04;;;;;;;;;;;;;;;20.07;26.73;100305.03;4356668;32;19970;-55
2021/04/26 03:00:30;;;;;;;;;;;;;;;20.05;26.75;100290.88;4371903;32;19951;-55
2021/04/26 03:02:57;;;;;;;;;;;;;;;19.99;26.86;100291.69;4372156;32;20328;-56
2021/04/26 03:05:22;;;;;;;;;;;;;;;19.94;27.02;100289.00;4357461;32;20034;-55
2021/04/26 03:07:48;;;;;;;;;;;;;;;19.97;26.92;100287.25;4357401;32;19991;-53
2021/04/26 03:10:14;;;;;;;;;;;;;;;20.02;26.88;100285.56;4369106;32;19955;-56
2021/04/26 03:12:41;;;;;;;;;;;;;;;20.04;26.80;100290.00;4371940;32;20003;-56
2021/04/26 03:15:06;;;;;;;;;;;;;;;20.01;26.82;100289.06;4360229;32;19956;-53
2021/04/26 03:17:32;;;;;;;;;;;;;;;19.92;26.95;100276.59;4356985;32;20007;-54
2021/04/26 03:19:58;;;;;;;;;;;;;;;19.97;26.86;100279.34;4355724;32;20001;-55
2021/04/26 03:22:24;;;;;;;;;;;;;;;19.99;26.76;100272.31;4356246;32;20379;-56
2021/04/26 03:24:50;;;;;;;;;;;;;;;19.99;26.75;100274.94;4369122;32;20017;-55
2021/04/26 03:27:16;;;;;;;;;;;;;;;19.95;26.98;100274.00;4375542;32;20001;-54
2021/04/26 03:29:42;;;;;;;;;;;;;;;19.98;26.89;100270.53;4369051;32;19952;-55
2021/04/26 03:32:08;;;;;;;;;;;;;;;19.96;26.98;100269.62;4361121;32;19951;-55
2021/04/26 03:34:34;;;;;;;;;;;;;;;19.84;27.06;100265.94;4367495;32;19973;-55
2021/04/26 03:36:59;;;;;;;;;;;;;;;19.97;26.82;100260.84;4376332;32;19968;-54
2021/04/26 03:39:25;;;;;;;;;;;;;;;19.89;26.90;100253.66;4371247;32;19952;-56
2021/04/26 03:41:51;;;;;;;;;;;;;;;19.96;26.72;100257.28;4362291;32;19986;-56
2021/04/26 03:44:17;;;;;;;;;;;;;;;20.01;26.71;100257.34;4372862;32;19962;-55
2021/04/26 03:46:43;;;;;;;;;;;;;;;19.93;26.78;100258.13;4361760;32;19966;-55
2021/04/26 03:49:09;;;;;;;;;;;;;;;19.94;26.80;100254.66;4362599;32;20359;-54
2021/04/26 03:51:35;;;;;;;;;;;;;;;19.96;26.77;100256.41;4375838;32;20046;-55
2021/04/26 03:54:01;;;;;;;;;;;;;;;19.95;26.85;100247.59;4376019;32;20014;-56
2021/04/26 03:56:26;;;;;;;;;;;;;;;19.96;26.76;100256.41;4361736;32;20305;-55
2021/04/26 03:58:52;;;;;;;;;;;;;;;19.94;26.85;100246.72;4361002;32;20000;-56
2021/04/26 04:01:18;;;;;;;;;;;;;;;19.92;26.76;100253.72;4375360;32;20045;-55
2021/04/26 04:03:44;;;;;;;;;;;;;;;19.93;26.77;100255.47;4375933;32;20002;-56
2021/04/26 04:06:10;;;;;;;;;;;;;;;19.90;26.79;100249.25;4363435;32;20003;-52
2021/04/26 04:08:36;;;;;;;;;;;;;;;19.92;26.87;100253.72;4359956;32;20022;-55
2021/04/26 04:11:02;;;;;;;;;;;;;;;19.87;26.86;100254.50;4373468;32;19970;-55
2021/04/26 04:13:28;;;;;;;;;;;;;;;19.83;26.96;100260.59;4375760;32;20466;-56
2021/04/26 04:15:54;;;;;;;;;;;;;;;19.88;26.78;100254.53;4366588;32;19952;-55
2021/04/26 04:18:20;;;;;;;;;;;;;;;19.91;26.87;100257.19;4361257;32;19970;-54
2021/04/26 04:20:45;;;;;;;;;;;;;;;19.92;26.75;100259.00;4368655;32;20593;-55
2021/04/26 04:23:11;;;;;;;;;;;;;;;19.86;26.86;100264.19;4376535;32;19959;-55
2021/04/26 04:25:37;;;;;;;;;;;;;;;19.86;26.75;100264.19;4369141;32;19955;-54
2021/04/26 04:28:03;;;;;;;;;;;;;;;19.91;26.76;100262.47;4360624;32;20344;-55
2021/04/26 04:30:29;;;;;;;;;;;;;;;19.82;26.94;100261.47;4367150;32;19966;-54
2021/04/26 04:32:55;;;;;;;;;;;;;;;19.87;26.79;100265.06;4375991;32;19985;-54
2021/04/26 04:35:21;;;;;;;;;;;;;;;19.88;26.78;100272.13;4369699;32;19955;-55
2021/04/26 04:37:47;;;;;;;;;;;;;;;19.92;26.74;100268.66;4358865;32;19951;-55
2021/04/26 04:40:12;;;;;;;;;;;;;;;19.86;26.75;100260.66;4361013;32;20292;-56
2021/04/26 04:42:38;;;;;;;;;;;;;;;19.86;26.75;100260.66;4373164;32;20048;-55
2021/04/26 04:45:04;;;;;;;;;;;;;;;19.85;26.82;100267.69;4371317;32;19990;-54
2021/04/26 04:47:30;;;;;;;;;;;;;;;19.84;26.75;100265.94;4358825;32;19966;-54
2021/04/26 04:49:56;;;;;;;;;;;;;;;19.91;26.74;100267.75;4358392;32;20368;-55
2021/04/26 04:52:22;;;;;;;;;;;;;;;19.83;26.77;100264.16;4372434;32;19962;-55
2021/04/26 04:54:48;;;;;;;;;;;;;;;19.79;26.88;100268.50;4373549;32;20496;-54
2021/04/26 04:57:14;;;;;;;;;;;;;;;19.74;26.95;100269.31;4359339;32;19951;-56
2021/04/26 04:59:39;;;;;;;;;;;;;;;19.80;26.81;100270.28;4358497;32;20320;-54
2021/04/26 05:02:05;;;;;;;;;;;;;;;19.90;26.74;100268.63;4361725;32;19959;-54
2021/04/26 05:04:31;;;;;;;;;;;;;;;19.85;26.81;100272.09;4358520;32;19963;-54
2021/04/26 05:06:57;;;;;;;;;;;;;;;19.87;26.67;100265.97;4369709;32;20291;-56
2021/04/26 05:09:23;;;;;;;;;;;;;;;19.82;26.80;100266.75;4372830;32;20066;-55
2021/04/26 05:11:49;;;;;;;;;;;;;;;19.83;26.81;100264.16;4363510;32;19991;-55
2021/04/26 05:14:15;;;;;;;;;;;;;;;19.82;26.86;100272.97;4358325;32;19961;-55
2021/04/26 05:16:41;;;;;;;;;;;;;;;19.71;26.99;100266.63;4367331;32;19973;-55
2021/04/26 05:19:07;;;;;;;;;;;;;;;19.72;27.02;100265.78;4372403;32;19947;-53
2021/04/26 05:21:32;;;;;;;;;;;;;;;19.76;26.86;100275.50;4365546;32;20257;-56
2021/04/26 05:23:58;;;;;;;;;;;;;;;19.83;26.77;100273.81;4358898;32;19990;-53
2021/04/26 05:26:24;;;;;;;;;;;;;;;19.83;26.76;100264.16;4363992;32;19955;-55
2021/04/26 05:28:50;;;;;;;;;;;;;;;19.86;26.73;100264.19;4372804;32;20011;-53
2021/04/26 05:31:16;;;;;;;;;;;;;;;19.83;26.87;100271.19;4368442;32;20003;-55
2021/04/26 05:33:42;;;;;;;;;;;;;;;19.78;26.84;100276.41;4373018;32;19989;-56
2021/04/26 05:36:08;;;;;;;;;;;;;;;19.79;26.88;100278.19;4369583;32;19970;-56
2021/04/26 05:38:34;;;;;;;;;;;;;;;19.83;26.80;100268.53;4357920;32;19994;-56
2021/04/26 05:41:00;;;;;;;;;;;;;;;19.90;26.69;100279.19;4358913;32;19956;-54
2021/04/26 05:43:26;;;;;;;;;;;;;;;19.93;26.64;100276.62;4357621;32;19994;-51
2021/04/26 05:45:51;;;;;;;;;;;;;;;19.85;26.76;100272.09;4358630;32;20313;-55
2021/04/26 05:48:17;;;;;;;;;;;;;;;19.85;26.76;100277.37;4372558;32;19981;-50
2021/04/26 05:50:43;;;;;;;;;;;;;;;19.82;26.75;100272.97;4371946;32;19985;-55
2021/04/26 05:53:09;;;;;;;;;;;;;;;19.82;26.79;100277.34;4358497;32;20295;-52
2021/04/26 05:55:35;;;;;;;;;;;;;;;19.87;26.79;100271.25;4357699;32;19963;-55
2021/04/26 05:58:01;;;;;;;;;;;;;;;19.86;26.75;100285.31;4371309;32;19959;-55
2021/04/26 06:00:27;;;;;;;;;;;;;;;19.80;26.88;100279.94;4371411;32;20410;-54
2021/04/26 06:02:53;;;;;;;;;;;;;;;19.74;26.92;100283.41;4370958;32;19967;-55
2021/04/26 06:05:19;;;;;;;;;;;;;;;19.80;26.86;100287.87;4371655;32;20013;-57
2021/04/26 06:07:45;;;;;;;;;;;;;;;19.75;26.90;100281.66;4362748;32;19993;-54
2021/04/26 06:10:11;;;;;;;;;;;;;;;19.76;26.89;100281.69;4356974;32;19967;-55
2021/04/26 06:12:37;;;;;;;;;;;;;;;19.80;26.82;100278.22;4360872;32;19963;-56
2021/04/26 06:15:03;;;;;;;;;;;;;;;19.79;26.80;100286.09;4373512;32;19951;-55
2021/04/26 06:17:29;;;;;;;;;;;;;;;19.92;26.64;100281.88;4373143;32;19970;-55
2021/04/26 06:19:55;;;;;;;;;;;;;;;19.88;26.65;100286.22;4369771;32;20017;-54
2021/04/26 06:22:21;;;;;;;;;;;;;;;19.85;26.71;100280.91;4365837;32;20834;-54
2021/04/26 06:24:47;;;;;;;;;;;;;;;19.91;26.67;100293.31;4372747;32;19956;-56
2021/04/26 06:27:12;;;;;;;;;;;;;;;19.96;26.58;100280.19;4366954;32;19947;-54
2021/04/26 06:29:38;;;;;;;;;;;;;;;19.91;26.68;100277.47;4365286;32;19994;-55
2021/04/26 06:32:04;;;;;;;;;;;;;;;19.88;26.69;100275.66;4360809;32;20336;-53
2021/04/26 06:34:30;;;;;;;;;;;;;;;20.00;26.50;100282.00;4366269;32;19955;-55
2021/04/26 06:36:56;;;;;;;;;;;;;;;20.00;26.49;100276.72;4366079;32;20014;-51
2021/04/26 06:39:23;;;;;;;;;;;;;;;19.97;26.54;100280.19;4363875;32;20029;-55
2021/04/26 06:41:49;;;;;;;;;;;;;;;19.94;26.58;100281.06;4365595;32;20002;-55
2021/04/26 06:44:15;;;;;;;;;;;;;;;19.89;26.67;100282.72;4366256;32;19970;-53
2021/04/26 06:46:41;;;;;;;;;;;;;;;19.91;26.67;100277.47;4364343;32;19971;-56
2021/04/26 06:49:07;;;;;;;;;;;;;;;19.87;26.71;100281.81;4363609;32;20355;-56
2021/04/26 06:51:33;;;;;;;;;;;;;;;19.90;26.64;100281.84;4365223;32;19997;-54
2021/04/26 06:53:59;;;;;;;;;;;;;;;20.02;26.48;100280.25;4364668;32;19997;-55
2021/04/26 06:56:25;;;;;;;;;;;;;;;19.93;26.60;100276.62;4365123;32;20375;-55
2021/04/26 06:58:51;;;;;;;;;;;;;;;19.97;26.60;100276.69;4364773;32;19983;-54
2021/04/26 07:01:17;;;;;;;;;;;;;;;19.99;26.52;100275.81;4365091;32;19947;-53
2021/04/26 07:03:43;;;;;;;;;;;;;;;20.03;26.47;100274.09;4365565;32;19989;-55
2021/04/26 07:06:09;;;;;;;;;;;;;;;20.05;26.46;100275.91;4365060;32;20405;-54
2021/04/26 07:08:34;;;;;;;;;;;;;;;20.06;26.44;100276.78;4364237;32;20324;-54
2021/04/26 07:11:00;;;;;;;;;;;;;;;20.03;26.48;100276.75;4365707;32;19943;-55
2021/04/26 07:13:27;;;;;;;;;;;;;;;20.00;26.51;100272.34;4365136;32;19966;-51
2021/04/26 07:15:53;;;;;;;;;;;;;;;19.96;26.61;100269.62;4373197;32;19943;-56
2021/04/26 07:18:19;;;;;;;;;;;;;;;19.99;26.55;100269.66;4365733;32;20007;-54
2021/04/26 07:20:45;;;;;;;;;;;;;;;19.97;26.61;100271.41;4363696;32;19991;-55
2021/04/26 07:23:11;;;;;;;;;;;;;;;20.01;26.55;100273.22;4365415;32;19947;-54
2021/04/26 07:25:37;;;;;;;;;;;;;;;20.06;26.47;100271.50;4365556;32;19947;-55
2021/04/26 07:28:03;;;;;;;;;;;;;;;19.96;26.62;100275.78;4365570;32;19965;-55
2021/04/26 07:30:29;;;;;;;;;;;;;;;19.98;26.63;100275.81;4365085;32;19990;-54
2021/04/26 07:32:55;;;;;;;;;;;;;;;19.96;26.65;100265.22;4364525;32;19960;-54
2021/04/26 07:35:21;;;;;;;;;;;;;;;19.96;26.62;100262.56;4367290;32;19965;-55
2021/04/26 07:37:47;;;;;;;;;;;;;;;19.94;26.68;100262.56;4371384;32;20051;-55
2021/04/26 07:40:13;;;;;;;;;;;;;;;19.95;26.67;100268.72;4361741;32;20396;-56
2021/04/26 07:42:39;;;;;;;;;;;;;;;20.01;26.57;100263.53;4363239;32;19962;-56
2021/04/26 07:45:05;;;;;;;;;;;;;;;20.02;26.57;100256.47;4363774;32;19959;-55
2021/04/26 07:47:31;;;;;;;;;;;;;;;20.00;26.61;100258.22;4362776;32;19955;-55
2021/04/26 07:49:57;;;;;;;;;;;;;;;19.98;26.64;100258.19;4359224;32;19952;-55
2021/04/26 07:52:23;;;;;;;;;;;;;;;19.94;26.75;100245.81;4351895;32;20035;-56
2021/04/26 07:54:49;;;;;;;;;;;;;;;20.01;26.62;100252.97;4368130;32;19943;-56
2021/04/26 07:57:15;;;;;;;;;;;;;;;19.98;26.65;100252.03;4360889;32;19955;-52
2021/04/26 07:59:41;;;;;;;;;;;;;;;19.92;26.73;100259.00;4362445;32;20384;-55
2021/04/26 08:02:07;;;;;;;;;;;;;;;19.90;26.78;100260.69;4358991;32;19955;-55
2021/04/26 08:04:33;;;;;;;;;;;;;;;19.97;26.71;100255.53;4364999;32;19961;-52
2021/04/26 08:06:59;;;;;;;;;;;;;;;19.94;26.74;100252.00;4369150;32;20414;-54
2021/04/26 08:09:25;;;;;;;;;;;;;;;19.94;26.74;100253.75;4361578;32;19952;-54
2021/04/26 08:11:51;;;;;;;;;;;;;;;19.96;26.75;100251.13;4359657;32;19967;-54
2021/04/26 08:14:17;;;;;;;;;;;;;;;19.93;26.81;100242.25;4363277;32;19989;-55
2021/04/26 08:16:43;;;;;;;;;;;;;;;20.08;26.58;100246.00;4362966;32;20014;-55
2021/04/26 08:19:10;;;;;;;;;;;;;;;19.94;26.87;100244.06;4362318;32;20299;-55
2021/04/26 08:21:36;;;;;;;;;;;;;;;19.97;26.87;100239.69;4355653;32;20337;-53
2021/04/26 08:24:02;;;;;;;;;;;;;;;20.10;26.61;100236.31;4362673;32;19969;-54
2021/04/26 08:26:27;;;;;;;;;;;;;;;20.03;26.67;100229.16;4369836;32;20038;-50
2021/04/26 08:28:53;;;;;;;;;;;;;;;19.99;26.78;100237.94;4368242;32;20003;-56
2021/04/26 08:31:19;;;;;;;;;;;;;;;20.11;26.64;100231.91;4356536;32;19995;-50
2021/04/26 08:33:45;;;;;;;;;;;;;;;20.18;26.53;100231.97;4356060;32;19966;-52
2021/04/26 08:36:11;;;;;;;;;;;;;;;20.19;26.50;100231.13;4371585;32;19952;-55
2021/04/26 08:38:37;;;;;;;;;;;;;;;20.16;26.58;100223.16;4372954;32;19978;-55
2021/04/26 08:41:03;;;;;;;;;;;;;;;20.10;26.73;100228.38;4357902;32;20287;-54
2021/04/26 08:43:29;;;;;;;;;;;;;;;20.18;26.59;100224.03;4355490;32;19955;-54
2021/04/26 08:45:55;;;;;;;;;;;;;;;20.20;26.62;100224.06;4371743;32;19944;-55
2021/04/26 08:48:22;;;;;;;;;;;;;;;20.27;26.50;100225.03;4372089;32;19959;-55
2021/04/26 08:50:47;;;;;;;;;;;;;;;20.26;26.55;100220.59;4358346;32;20547;-55
2021/04/26 08:53:13;;;;;;;;;;;;;;;20.26;26.58;100217.97;4356770;32;19963;-55
2021/04/26 08:55:39;;;;;;;;;;;;;;;20.26;26.60;100215.31;4368571;32;19948;-55
2021/04/26 08:58:05;;;;;;;;;;;;;;;20.31;26.56;100208.31;4370469;32;19963;-56
2021/04/26 09:00:31;;;;;;;;;;;;;;;20.30;26.56;100211.81;4362242;32;19983;-55
2021/04/26 09:02:57;;;;;;;;;;;;;;;20.31;26.57;100203.91;4358193;32;19953;-54
2021/04/26 09:05:24;;;;;;;;;;;;;;;20.31;26.58;100218.88;4360529;32;19951;-58
2021/04/26 09:07:50;;;;;;;;;;;;;;;20.25;26.64;100198.59;4371033;32;20002;-58
2021/04/26 09:10:16;;;;;;;;;;;;;;;19.45;23.95;100207.28;4365027;32;19971;-56
2021/04/26 09:12:41;;;;;;;;;;;;;;;19.12;26.64;100199.78;4355664;32;20376;-56
2021/04/26 09:15:08;;;;;;;;;;;;;;;19.41;26.63;100210.78;4362513;32;19975;-57
2021/04/26 09:17:34;;;;;;;;;;;;;;;19.58;26.59;100208.38;4372311;32;19966;-56
2021/04/26 09:20:00;;;;;;;;;;;;;;;19.82;26.46;100206.91;4365925;32;20341;-56
2021/04/26 09:22:26;;;;;;;;;;;;;;;19.74;26.52;100208.53;4356354;32;19969;-57
2021/04/26 09:24:52;;;;;;;;;;;;;;;19.82;26.42;100209.53;4360060;32;19974;-57
2021/04/26 09:27:18;;;;;;;;;;;;;;;19.74;26.55;100211.19;4371930;32;20027;-57
2021/04/26 09:29:44;;;;;;;;;;;;;;;19.71;26.82;100211.16;4368314;32;20291;-52
2021/04/26 09:32:10;;;;;;;;;;;;;;;19.60;27.13;100203.97;4359717;32;19951;-54
2021/04/26 09:34:36;;;;;;;;;;;;;;;19.35;27.70;100203.66;4356252;32;20001;-57
2021/04/26 09:37:02;;;;;;;;;;;;;;;19.23;27.92;100195.56;4372055;32;19959;-58
2021/04/26 09:39:28;;;;;;;;;;;;;;;19.34;28.00;100193.97;4370134;32;20002;-59
2021/04/26 09:41:56;;;;;;;;;;;;;;;19.54;27.76;100192.44;4361571;32;19967;-59
2021/04/26 09:44:21;;;;;;;;;;;;;;;19.31;23.13;100180.69;4362500;32;19943;-58
2021/04/26 09:46:47;;;;;;;;;;;;;;;19.24;23.18;100184.13;4360243;32;19959;-53
2021/04/26 09:49:13;;;;;;;;;;;;;;;19.04;23.48;100181.22;4358563;32;19989;-53
2021/04/26 09:51:39;;;;;;;;;;;;;;;18.93;24.61;100184.53;4356068;32;19985;-53
2021/04/26 09:54:05;;;;;;;;;;;;;;;18.81;23.35;100182.56;4361075;32;19948;-53
2021/04/26 09:56:36;;;;;;;;;;;;;;;19.22;23.39;100177.94;4363806;32;19993;-53
2021/04/26 09:59:02;;;;;;;;;;;;;;;19.03;22.19;100185.59;4360602;32;20008;-55
2021/04/26 10:01:28;;;;;;;;;;;;;;;19.05;23.18;100173.28;4366475;32;20312;-57
2021/04/26 10:03:54;;;;;;;;;;;;;;;19.04;22.14;100176.81;4368649;32;19947;-56
2021/04/26 10:06:20;;;;;;;;;;;;;;;18.97;23.17;100174.91;4362239;32;19959;-56
2021/04/26 10:08:46;;;;;;;;;;;;;;;18.99;22.97;100167.91;4367612;32;19959;-54
2021/04/26 10:11:11;;;;;;;;;;;;;;;18.77;21.86;100164.94;4366823;32;19984;-55
2021/04/26 10:13:37;;;;;;;;;;;;;;;18.92;22.59;100158.13;4363619;32;19969;-55
2021/04/26 10:16:03;;;;;;;;;;;;;;;19.04;23.27;100166.25;4361620;32;20363;-54
2021/04/26 10:18:29;;;;;;;;;;;;;;;19.19;21.46;100152.37;4366209;32;19951;-55
2021/04/26 10:20:55;;;;;;;;;;;;;;;18.91;21.81;100145.78;4360348;32;19952;-56
2021/04/26 10:23:21;;;;;;;;;;;;;;;18.91;22.18;100146.69;4357839;32;19989;-54
2021/04/26 10:25:47;;;;;;;;;;;;;;;18.85;21.72;100149.22;4369593;32;20004;-55
2021/04/26 10:28:13;;;;;;;;;;;;;;;18.63;22.08;100148.00;4369266;32;20548;-55
2021/04/26 10:30:39;;;;;;;;;;;;;;;18.61;21.29;100139.19;4369738;32;20006;-58
2021/04/26 10:33:06;;;;;;;;;;;;;;;18.65;21.93;100125.19;4363191;32;19977;-57
2021/04/26 10:35:32;;;;;;;;;;;;;;;18.68;22.77;100128.75;4367139;32;19958;-56
2021/04/26 10:37:58;;;;;;;;;;;;;;;18.78;21.87;100126.28;4367481;32;19982;-56
2021/04/26 10:40:24;;;;;;;;;;;;;;;18.72;21.43;100127.06;4363495;32;19993;-56
2021/04/26 10:42:50;;;;;;;;;;;;;;;18.86;21.66;100119.31;4362435;32;20532;-56
2021/04/26 10:45:20;;;;;;;;;;;;;;;18.96;21.62;100120.38;4368775;32;19947;-55
2021/04/26 10:47:45;;;;;;;;;;;;;;;18.98;21.43;100110.72;4361893;32;20323;-56
2021/04/26 10:50:14;;;;;;;;;;;;;;;18.67;21.62;100104.97;4363988;32;20008;-57
2021/04/26 10:52:40;;;;;;;;;;;;;;;18.78;22.13;100094.63;4364619;32;19998;-55
2021/04/26 10:55:06;;;;;;;;;;;;;;;18.92;22.41;100097.44;4368800;32;20303;-57
2021/04/26 10:57:32;;;;;;;;;;;;;;;18.96;21.99;100094.00;4360914;32;19955;-57
2021/04/26 10:59:58;;;;;;;;;;;;;;;18.92;22.47;100097.44;4362644;32;20023;-57
2021/04/26 11:02:24;;;;;;;;;;;;;;;18.94;21.70;100079.84;4363697;32;19959;-54
2021/04/26 11:04:50;;;;;;;;;;;;;;;19.17;21.21;100076.66;4369755;32;20562;-57
2021/04/26 11:07:18;;;;;;;;;;;;;;;18.80;21.67;100066.50;4362034;32;19974;-56
2021/04/26 11:09:44;;;;;;;;;;;;;;;19.02;21.76;100072.09;4356775;32;19959;-57
2021/04/26 11:12:10;;;;;;;;;;;;;;;19.28;21.63;100053.94;4366078;32;20015;-55
2021/04/26 11:14:35;;;;;;;;;;;;;;;19.29;21.58;100060.13;4362560;32;20375;-56
2021/04/26 11:17:02;;;;;;;;;;;;;;;19.26;21.29;100050.41;4363193;32;19956;-57
2021/04/26 11:19:28;;;;;;;;;;;;;;;18.93;21.25;100051.69;4364346;32;19962;-55
2021/04/26 11:21:54;;;;;;;;;;;;;;;19.23;21.55;100045.09;4362809;32;19960;-56
2021/04/26 11:24:20;;;;;;;;;;;;;;;19.43;20.92;100037.37;4367133;32;19954;-56
2021/04/26 11:26:46;;;;;;;;;;;;;;;19.44;20.49;100032.97;4362586;32;19959;-56
2021/04/26 11:29:12;;;;;;;;;;;;;;;19.37;21.80;100027.63;4357760;32;19956;-56
2021/04/26 11:31:38;;;;;;;;;;;;;;;19.19;21.27;100019.50;4361549;32;19947;-57
2021/04/26 11:34:04;;;;;;;;;;;;;;;19.45;22.47;100005.72;4362626;32;20057;-58
2021/04/26 11:36:33;;;;;;;;;;;;;;;19.59;22.63;100006.75;4369153;32;20578;-58
2021/04/26 11:38:58;;;;;;;;;;;;;;;19.54;22.52;99997.88;4363735;32;19991;-57
2021/04/26 11:41:24;;;;;;;;;;;;;;;19.35;22.93;99996.78;4363892;32;19958;-58
2021/04/26 11:43:50;;;;;;;;;;;;;;;19.34;23.06;100000.31;4370488;32;19959;-57
2021/04/26 11:46:16;;;;;;;;;;;;;;;19.31;23.28;99990.59;4364862;32;19964;-56
2021/04/26 11:48:42;;;;;;;;;;;;;;;19.31;23.49;100001.16;4369281;32;20371;-57
2021/04/26 11:51:08;;;;;;;;;;;;;;;19.34;23.56;99990.66;4369308;32;19955;-57
2021/04/26 11:53:34;;;;;;;;;;;;;;;19.39;23.64;99993.34;4363724;32;19963;-57
2021/04/26 11:56:00;;;;;;;;;;;;;;;19.51;23.70;99976.72;4358167;32;19943;-56
2021/04/26 11:58:26;;;;;;;;;;;;;;;19.52;23.77;99973.22;4366415;32;19943;-58
2021/04/26 12:00:52;;;;;;;;;;;;;;;19.57;23.83;99963.59;4367219;32;19997;-57
2021/04/26 12:03:18;;;;;;;;;;;;;;;19.70;23.79;99958.41;4366200;32;19940;-58
2021/04/26 12:05:44;;;;;;;;;;;;;;;19.74;23.83;99955.78;4361793;32;19971;-57
2021/04/26 12:08:11;;;;;;;;;;;;;;;19.77;23.89;99952.28;4365720;32;19959;-57
2021/04/26 12:10:40;;;;;;;;;;;;;;;19.87;23.83;99959.41;4365696;32;19951;-55
2021/04/26 12:13:06;;;;;;;;;;;;;;;19.87;23.96;99954.13;4364003;32;19958;-56
2021/04/26 12:15:32;;;;;;;;;;;;;;;19.90;23.92;99943.59;4365998;32;19948;-56
2021/04/26 12:17:58;;;;;;;;;;;;;;;19.92;23.96;99935.69;4366358;32;19957;-56
2021/04/26 12:20:24;;;;;;;;;;;;;;;19.92;24.06;99940.97;4365840;32;20012;-56
2021/04/26 12:22:50;;;;;;;;;;;;;;;19.87;24.29;99938.28;4367153;32;19950;-53
2021/04/26 12:25:16;;;;;;;;;;;;;;;19.80;24.45;99936.44;4369930;32;19951;-57
2021/04/26 12:27:42;;;;;;;;;;;;;;;19.86;24.51;99930.34;4372444;32;19970;-56
2021/04/26 12:30:08;;;;;;;;;;;;;;;19.85;24.57;99929.47;4364621;32;19954;-57